Terminal Aerodrome Forecast
Issued by NWS

Home | Current Version | Previous Version | Text Only | Print | Product List | Glossary On
Versions: 1 2 3 4 5 6 7 8 9 10 11 12
000
FTUS45 KTFX 310500
TAFLWT
TAF
KLWT 310537Z 3106/0106 12008KT P6SM SCT200
     FM311400 32008KT P6SM VCSH SCT070 BKN120
     FM311600 34012G22KT 3/4SM -SN OVC012
     FM312100 35010KT 3/4SM -SN BR OVC008=

USA.gov is the U.S. government's official web portal to all federal, state and local government web resources and services.